createdAt,value
2019-03-19T00:00:38.156Z,94710.42
2019-03-19T00:03:07.661Z,94713.57
2019-03-19T00:05:37.192Z,94711.16
2019-03-19T00:08:06.753Z,94707.78
2019-03-19T00:10:36.298Z,94704.86
2019-03-19T00:13:05.784Z,94699.88
2019-03-19T00:15:35.265Z,94701.34
2019-03-19T00:18:04.735Z,94704.41
2019-03-19T00:20:34.227Z,94705.31
2019-03-19T00:23:03.736Z,94700.47
2019-03-19T00:25:33.226Z,94694.78
2019-03-19T00:28:02.699Z,94703.13
2019-03-19T00:30:32.235Z,94705.85
2019-03-19T00:33:01.756Z,94705.48
2019-03-19T00:35:31.262Z,94704.41
2019-03-19T00:38:00.770Z,94699.95
2019-03-19T00:40:30.277Z,94696.87
2019-03-19T00:42:59.784Z,94702.94
2019-03-19T00:45:29.253Z,94696.36
2019-03-19T00:47:58.757Z,94703.14
2019-03-19T00:50:28.249Z,94697.15
2019-03-19T00:52:57.766Z,94705.55
2019-03-19T00:55:27.248Z,94705.72
2019-03-19T00:57:56.758Z,94698.11
2019-03-19T01:00:26.280Z,94705.09
2019-03-19T01:02:55.839Z,94712.24
2019-03-19T01:05:25.322Z,94696.13
2019-03-19T01:07:54.830Z,94711.58
2019-03-19T01:10:24.441Z,94712.50
2019-03-19T01:12:53.990Z,94703.05
2019-03-19T01:15:23.466Z,94700.39
2019-03-19T01:17:53.007Z,94720.33
2019-03-19T01:20:22.507Z,94721.19
2019-03-19T01:22:52.038Z,94724.73
2019-03-19T01:25:21.552Z,94722.95
2019-03-19T01:27:51.088Z,94727.95
2019-03-19T01:30:20.670Z,94730.12
2019-03-19T01:32:50.176Z,94734.80
2019-03-19T01:35:19.697Z,94748.06
2019-03-19T01:37:49.176Z,94742.89
2019-03-19T01:40:18.705Z,94741.09
2019-03-19T01:42:48.269Z,94745.54
2019-03-19T01:45:17.780Z,94747.09
2019-03-19T01:47:47.261Z,94740.65
2019-03-19T01:50:16.855Z,94746.30
2019-03-19T01:52:46.337Z,94748.14
2019-03-19T01:55:15.988Z,94750.98
2019-03-19T01:57:45.472Z,94753.30
2019-03-19T02:00:15.867Z,94750.59
2019-03-19T02:02:45.376Z,94753.73
2019-03-19T02:05:14.872Z,94750.20
2019-03-19T02:07:44.471Z,94760.91
2019-03-19T02:10:14.047Z,94766.16
2019-03-19T02:12:43.750Z,94763.52
2019-03-19T02:15:13.455Z,94774.21
2019-03-19T02:17:42.976Z,94768.36
2019-03-19T02:20:13.048Z,94784.47
2019-03-19T02:22:42.581Z,94785.36
2019-03-19T02:25:12.131Z,94783.36
2019-03-19T02:27:41.595Z,94780.05
2019-03-19T02:30:11.880Z,94785.05
2019-03-19T02:32:41.361Z,94790.41
2019-03-19T02:35:11.203Z,94795.95
2019-03-19T02:37:40.777Z,94796.45
2019-03-19T02:40:10.304Z,94798.46
2019-03-19T02:42:39.796Z,94815.18
2019-03-19T02:45:09.809Z,94807.70
2019-03-19T02:47:39.318Z,94824.53
2019-03-19T02:50:09.439Z,94823.90
2019-03-19T02:52:38.931Z,94832.92
2019-03-19T02:55:08.954Z,94833.90
2019-03-19T02:57:38.461Z,94836.47
2019-03-19T03:00:08.369Z,94842.06
2019-03-19T03:02:37.847Z,94836.42
2019-03-19T03:05:08.716Z,94838.95
2019-03-19T03:07:38.221Z,94848.59
2019-03-19T03:10:08.696Z,94845.01
2019-03-19T03:12:38.154Z,94859.42
2019-03-19T03:15:07.963Z,94862.52
2019-03-19T03:17:37.442Z,94854.19
2019-03-19T03:20:07.337Z,94855.51
2019-03-19T03:22:36.808Z,94858.89
2019-03-19T03:25:07.165Z,94865.55
2019-03-19T03:27:36.679Z,94853.11
2019-03-19T03:30:07.768Z,94864.25
2019-03-19T03:32:37.220Z,94858.57
2019-03-19T03:35:07.309Z,94857.27
2019-03-19T03:37:36.818Z,94862.39
2019-03-19T03:40:07.452Z,94862.88
2019-03-19T03:42:37.024Z,94866.62
2019-03-19T03:45:07.102Z,94869.47
2019-03-19T03:47:36.600Z,94867.67
2019-03-19T03:50:06.703Z,94875.33
2019-03-19T03:52:36.157Z,94875.25
2019-03-19T03:55:05.940Z,94882.80
2019-03-19T03:57:35.423Z,94887.56
2019-03-19T04:00:05.645Z,94886.58
2019-03-19T04:02:35.160Z,94891.36
2019-03-19T04:05:05.194Z,94898.09
2019-03-19T04:07:34.644Z,94900.71
2019-03-19T04:10:04.788Z,94895.53
2019-03-19T04:12:34.357Z,94898.08
2019-03-19T04:15:03.963Z,94903.34
2019-03-19T04:17:33.476Z,94914.48
2019-03-19T04:20:02.974Z,94911.45
2019-03-19T04:22:32.441Z,94918.41
2019-03-19T04:25:01.879Z,94911.67
2019-03-19T04:27:31.369Z,94918.88
2019-03-19T04:30:00.851Z,94911.11
2019-03-19T04:32:30.346Z,94912.41
2019-03-19T04:34:59.836Z,94921.88
2019-03-19T04:37:29.339Z,94908.72
2019-03-19T04:39:58.828Z,94915.45
2019-03-19T04:42:28.311Z,94923.89
2019-03-19T04:44:57.812Z,94930.42
2019-03-19T04:47:27.330Z,94931.30
2019-03-19T04:49:56.844Z,94940.02
2019-03-19T04:52:26.304Z,94947.36
2019-03-19T04:54:55.812Z,94943.94
2019-03-19T04:57:27.003Z,94940.05
2019-03-19T04:59:58.948Z,94946.81
2019-03-19T05:02:27.768Z,94954.55
2019-03-19T05:04:57.249Z,94956.92
2019-03-19T05:07:26.764Z,94966.81
2019-03-19T05:09:56.235Z,94975.04
2019-03-19T05:12:25.715Z,94972.32
2019-03-19T05:14:55.235Z,94967.45
2019-03-19T05:17:24.728Z,94971.50
2019-03-19T05:19:54.250Z,94969.25
2019-03-19T05:22:23.765Z,94966.45
2019-03-19T05:24:53.274Z,94966.06
2019-03-19T05:27:22.771Z,94969.17
2019-03-19T05:29:52.337Z,94970.30
2019-03-19T05:32:21.841Z,94970.30
2019-03-19T05:34:51.326Z,94963.45
2019-03-19T05:37:20.876Z,94974.47
2019-03-19T05:39:50.375Z,94967.27
2019-03-19T05:42:19.838Z,94975.00
2019-03-19T05:44:49.373Z,94974.02
2019-03-19T05:47:18.878Z,94976.66
2019-03-19T05:49:48.388Z,94983.80
2019-03-19T05:52:17.889Z,94983.38
2019-03-19T05:54:47.388Z,94985.49
2019-03-19T05:57:16.898Z,94982.09
2019-03-19T05:59:46.398Z,94981.81
2019-03-19T06:02:15.876Z,94989.02
2019-03-19T06:04:45.333Z,94990.78
2019-03-19T06:07:14.835Z,94981.92
2019-03-19T06:09:44.342Z,94980.82
2019-03-19T06:12:13.808Z,94990.08
2019-03-19T06:14:43.318Z,94979.47
2019-03-19T06:17:12.831Z,94983.03
2019-03-19T06:19:42.339Z,94983.59
2019-03-19T06:22:11.933Z,94991.92
2019-03-19T06:24:41.603Z,94988.44
2019-03-19T06:27:11.106Z,94989.61
2019-03-19T06:29:40.613Z,94993.21
2019-03-19T06:32:10.117Z,94992.99
2019-03-19T06:34:39.642Z,95000.52
2019-03-19T06:37:09.247Z,94995.79
2019-03-19T06:39:38.780Z,94995.92
2019-03-19T06:42:11.107Z,95000.30
2019-03-19T06:44:40.609Z,94994.19
2019-03-19T06:47:10.119Z,94996.57
2019-03-19T06:49:39.673Z,94984.08
2019-03-19T06:52:09.174Z,94991.38
2019-03-19T06:54:38.659Z,94999.78
2019-03-19T06:57:08.195Z,95001.53
2019-03-19T06:59:37.713Z,94996.14
2019-03-19T07:02:07.318Z,94990.45
2019-03-19T07:04:36.800Z,95008.28
2019-03-19T07:07:06.330Z,95001.84
2019-03-19T07:09:35.833Z,95003.01
2019-03-19T07:12:05.369Z,95008.03
2019-03-19T07:14:34.964Z,95009.92
2019-03-19T07:17:04.485Z,95003.81
2019-03-19T07:19:34.030Z,94996.62
2019-03-19T07:22:03.718Z,94997.45
2019-03-19T07:24:33.272Z,95016.80
2019-03-19T07:27:02.806Z,95006.19
2019-03-19T07:29:32.311Z,95013.92
2019-03-19T07:32:01.855Z,95012.70
2019-03-19T07:37:21.022Z,95007.22
2019-03-19T07:39:50.565Z,95014.86
2019-03-19T07:42:20.137Z,95017.11
2019-03-19T07:44:49.671Z,95006.44
2019-03-19T07:47:19.209Z,95006.17
2019-03-19T07:49:48.731Z,94996.95
2019-03-19T07:52:18.249Z,95004.79
2019-03-19T07:54:47.756Z,95003.09
2019-03-19T07:57:17.239Z,95015.34
2019-03-19T07:59:46.707Z,95015.97
2019-03-19T08:02:16.224Z,95004.05
2019-03-19T08:04:45.706Z,95006.11
2019-03-19T08:07:15.230Z,95021.80
2019-03-19T08:09:44.750Z,95000.56
2019-03-19T08:12:14.269Z,95027.03
2019-03-19T08:14:43.775Z,94999.94
2019-03-19T08:17:13.288Z,95013.05
2019-03-19T08:19:42.767Z,94997.12
2019-03-19T08:22:12.269Z,95014.31
2019-03-19T08:24:41.779Z,94999.75
2019-03-19T08:27:11.247Z,94998.25
2019-03-19T08:29:40.741Z,94999.06
2019-03-19T08:32:10.244Z,95003.61
2019-03-19T08:34:39.689Z,95007.42
2019-03-19T08:39:58.809Z,95002.30
2019-03-19T08:42:28.306Z,95000.03
2019-03-19T08:44:57.816Z,94991.45
2019-03-19T08:47:27.323Z,94992.50
2019-03-19T08:49:56.849Z,94984.72
2019-03-19T08:52:26.311Z,94986.13
2019-03-19T08:54:55.848Z,94992.09
2019-03-19T08:57:25.324Z,94985.42
2019-03-19T08:59:57.066Z,95000.28
2019-03-19T09:02:26.038Z,94975.93
2019-03-19T09:04:55.541Z,94975.12
2019-03-19T09:07:25.018Z,94976.89
2019-03-19T09:09:54.553Z,94979.29
2019-03-19T09:12:24.076Z,94984.34
2019-03-19T09:14:53.559Z,94978.96
2019-03-19T09:17:23.087Z,94973.34
2019-03-19T09:19:52.588Z,94971.37
2019-03-19T09:22:22.918Z,94981.72
2019-03-19T09:24:52.457Z,94969.15
2019-03-19T09:27:21.971Z,94975.90
2019-03-19T09:29:51.452Z,94978.90
2019-03-19T09:32:20.958Z,94979.17
2019-03-19T09:34:50.459Z,94973.10
2019-03-19T09:37:20.004Z,94976.64
2019-03-19T09:39:49.529Z,94984.05
2019-03-19T09:42:19.034Z,94975.34
2019-03-19T09:44:58.163Z,94982.67
2019-03-19T09:47:19.851Z,94986.63
2019-03-19T09:49:49.375Z,94984.69
2019-03-19T09:52:18.862Z,94972.34
2019-03-19T09:54:48.420Z,94980.08
2019-03-19T09:57:17.919Z,94972.18
2019-03-19T09:59:47.403Z,94967.99
2019-03-19T10:02:17.445Z,94965.23
2019-03-19T10:04:47.669Z,94961.77
2019-03-19T10:07:17.200Z,94971.10
2019-03-19T10:09:46.726Z,94967.81
2019-03-19T10:12:17.451Z,94958.53
2019-03-19T10:14:46.959Z,94964.13
2019-03-19T10:17:16.471Z,94952.12
2019-03-19T10:19:45.982Z,94950.03
2019-03-19T10:22:15.483Z,94947.92
2019-03-19T10:24:44.991Z,94944.73
2019-03-19T10:27:16.912Z,94941.60
2019-03-19T10:32:37.902Z,94948.73
2019-03-19T10:35:07.702Z,94939.05
2019-03-19T10:40:25.879Z,94940.12
2019-03-19T10:42:55.389Z,94943.05
2019-03-19T10:45:24.965Z,94939.98
2019-03-19T10:47:54.477Z,94930.63
2019-03-19T10:50:24.178Z,94929.81
2019-03-19T10:52:53.746Z,94927.61
2019-03-19T10:55:23.258Z,94925.68
2019-03-19T10:57:52.792Z,94921.92
2019-03-19T11:00:22.983Z,94925.53
2019-03-19T11:03:05.025Z,94913.22
2019-03-19T11:05:34.448Z,94910.84
2019-03-19T11:08:03.985Z,94914.34
2019-03-19T11:10:33.625Z,94901.84
2019-03-19T11:13:03.170Z,94902.33
2019-03-19T11:15:32.960Z,94900.24
2019-03-19T11:18:02.499Z,94897.78
2019-03-19T11:20:32.069Z,94892.02
2019-03-19T11:23:01.616Z,94896.38
2019-03-19T11:25:32.208Z,94884.67
2019-03-19T11:28:01.788Z,94891.80
2019-03-19T11:30:31.289Z,94882.53
2019-03-19T11:33:00.778Z,94881.73
2019-03-19T11:35:30.465Z,94871.73
2019-03-19T11:38:00.039Z,94877.14
2019-03-19T11:40:29.592Z,94872.25
2019-03-19T11:42:59.136Z,94878.70
2019-03-19T11:45:28.776Z,94870.77
2019-03-19T11:47:58.357Z,94868.58
2019-03-19T11:50:27.926Z,94872.48
2019-03-19T11:52:57.458Z,94870.74
2019-03-19T11:55:27.139Z,94863.09
2019-03-19T11:57:58.030Z,94861.70
2019-03-19T12:00:36.669Z,94859.85
2019-03-19T12:03:14.935Z,94867.77
2019-03-19T12:05:38.142Z,94861.91
2019-03-19T12:08:08.160Z,94861.47
2019-03-19T12:10:37.774Z,94855.43
2019-03-19T12:13:07.347Z,94854.48
2019-03-19T12:15:36.959Z,94848.59
2019-03-19T12:18:06.682Z,94847.58
2019-03-19T12:20:36.241Z,94842.42
2019-03-19T12:23:05.917Z,94842.90
2019-03-19T12:25:35.437Z,94838.02
2019-03-19T12:28:05.365Z,94834.28
2019-03-19T12:30:34.850Z,94830.18
2019-03-19T12:33:04.381Z,94823.22
2019-03-19T12:35:33.902Z,94828.36
2019-03-19T12:38:03.467Z,94826.28
2019-03-19T12:40:37.319Z,94830.14
2019-03-19T12:43:05.521Z,94828.98
2019-03-19T12:45:35.081Z,94822.75
2019-03-19T12:48:04.795Z,94817.59
2019-03-19T12:50:34.346Z,94820.63
2019-03-19T12:53:03.842Z,94819.87
2019-03-19T12:55:35.213Z,94816.28
2019-03-19T12:58:04.785Z,94819.46
2019-03-19T13:00:35.080Z,94812.27
2019-03-19T13:03:04.856Z,94814.25
2019-03-19T13:05:34.410Z,94813.35
2019-03-19T13:08:03.941Z,94822.12
2019-03-19T13:10:33.431Z,94813.49
2019-03-19T13:13:03.007Z,94822.03
2019-03-19T13:15:32.565Z,94818.44
2019-03-19T13:18:02.019Z,94817.11
2019-03-19T13:20:31.491Z,94825.20
2019-03-19T13:23:00.980Z,94826.44
2019-03-19T13:25:30.461Z,94818.48
2019-03-19T13:28:00.017Z,94816.20
2019-03-19T13:30:29.510Z,94815.41
2019-03-19T13:32:59.009Z,94827.35
2019-03-19T13:35:28.534Z,94825.22
2019-03-19T13:37:58.021Z,94816.45
2019-03-19T13:40:27.553Z,94814.12
2019-03-19T13:42:57.056Z,94823.61
2019-03-19T13:45:26.561Z,94819.96
2019-03-19T13:47:56.048Z,94819.11
2019-03-19T13:50:25.552Z,94821.67
2019-03-19T13:52:55.065Z,94814.41
2019-03-19T13:55:24.657Z,94812.09
2019-03-19T13:57:54.190Z,94818.35
2019-03-19T14:00:23.652Z,94816.26
2019-03-19T14:02:53.166Z,94815.94
2019-03-19T14:05:22.675Z,94814.84
2019-03-19T14:07:52.153Z,94812.33
2019-03-19T14:10:21.921Z,94820.30
2019-03-19T14:12:51.453Z,94808.34
2019-03-19T14:15:20.987Z,94811.09
2019-03-19T14:17:50.564Z,94810.20
2019-03-19T14:20:20.078Z,94805.22
2019-03-19T14:22:49.591Z,94807.03
2019-03-19T14:25:19.091Z,94799.86
2019-03-19T14:27:48.571Z,94815.27
2019-03-19T14:30:18.406Z,94811.66
2019-03-19T14:32:48.138Z,94826.86
2019-03-19T14:35:17.721Z,94838.87
2019-03-19T14:37:47.209Z,94831.28
2019-03-19T14:40:17.669Z,94829.11
2019-03-19T14:42:47.206Z,94826.92
2019-03-19T14:45:17.223Z,94832.42
2019-03-19T14:47:46.741Z,94831.84
2019-03-19T14:50:16.471Z,94841.25
2019-03-19T14:52:45.949Z,94835.80
2019-03-19T14:55:15.557Z,94842.42
2019-03-19T14:57:45.067Z,94843.22
2019-03-19T15:00:15.635Z,94844.66
2019-03-19T15:02:45.160Z,94856.25
2019-03-19T15:05:14.970Z,94855.38
2019-03-19T15:07:44.589Z,94860.62
2019-03-19T15:10:15.244Z,94860.77
2019-03-19T15:12:44.831Z,94862.48
2019-03-19T15:15:15.424Z,94870.61
2019-03-19T15:17:44.905Z,94868.45
2019-03-19T15:20:16.575Z,94886.59
2019-03-19T15:22:46.263Z,94885.84
2019-03-19T15:25:15.856Z,94885.61
2019-03-19T15:27:45.380Z,94894.25
2019-03-19T15:30:15.560Z,94887.98
2019-03-19T15:32:45.218Z,94888.40
2019-03-19T15:35:14.857Z,94898.77
2019-03-19T15:38:02.413Z,94903.08
2019-03-19T15:40:32.019Z,94901.78
2019-03-19T15:43:01.505Z,94907.70
2019-03-19T15:45:31.103Z,94903.23
2019-03-19T15:48:00.629Z,94908.59
2019-03-19T15:50:30.196Z,94910.20
2019-03-19T15:52:59.756Z,94916.88
2019-03-19T15:55:29.245Z,94918.28
2019-03-19T15:57:58.793Z,94931.07
2019-03-19T16:00:28.449Z,94928.91
2019-03-19T16:02:57.911Z,94932.39
2019-03-19T16:05:27.411Z,94939.97
2019-03-19T16:07:56.913Z,94943.24
2019-03-19T16:10:28.253Z,94952.52
2019-03-19T16:13:04.588Z,94955.42
2019-03-19T16:15:34.138Z,94958.78
2019-03-19T16:18:03.641Z,94959.07
2019-03-19T16:20:33.151Z,94964.76
2019-03-19T16:23:02.724Z,94972.92
2019-03-19T16:25:32.265Z,94969.92
2019-03-19T16:28:01.766Z,94976.91
2019-03-19T16:30:31.244Z,94981.02
2019-03-19T16:33:00.733Z,94980.32
2019-03-19T16:35:30.264Z,94990.59
2019-03-19T16:37:59.846Z,94991.72
2019-03-19T16:40:29.387Z,94988.13
2019-03-19T16:42:59.044Z,94997.77
2019-03-19T16:45:28.654Z,95006.13
2019-03-19T16:47:58.186Z,95011.19
2019-03-19T16:50:27.729Z,95021.34
2019-03-19T16:52:57.331Z,95024.92
2019-03-19T16:55:26.856Z,95027.22
2019-03-19T16:57:56.405Z,95034.26
2019-03-19T17:00:25.939Z,95040.44
2019-03-19T17:02:55.391Z,95036.91
2019-03-19T17:05:24.878Z,95042.05
2019-03-19T17:07:54.403Z,95044.75
2019-03-19T17:10:23.945Z,95049.59
2019-03-19T17:12:53.471Z,95049.30
2019-03-19T17:15:22.965Z,95051.56
2019-03-19T17:17:52.617Z,95058.32
2019-03-19T17:20:30.054Z,95063.22
2019-03-19T17:23:06.824Z,95063.42
2019-03-19T17:25:36.538Z,95069.89
2019-03-19T17:28:06.432Z,95076.31
2019-03-19T17:30:35.947Z,95088.73
2019-03-19T17:33:05.605Z,95089.96
2019-03-19T17:35:35.170Z,95094.73
2019-03-19T17:38:04.995Z,95095.23
2019-03-19T17:40:41.211Z,95096.68
2019-03-19T17:43:05.900Z,95099.83
2019-03-19T17:45:35.552Z,95106.64
2019-03-19T17:48:15.471Z,95110.89
2019-03-19T17:50:36.440Z,95109.00
2019-03-19T17:53:05.945Z,95116.63
2019-03-19T17:55:35.640Z,95122.63
2019-03-19T17:58:05.257Z,95130.53
2019-03-19T18:00:35.508Z,95129.22
2019-03-19T18:03:06.837Z,95126.91
2019-03-19T18:05:36.406Z,95128.08
2019-03-19T18:08:06.449Z,95131.91
2019-03-19T18:10:35.992Z,95136.08
2019-03-19T18:13:06.747Z,95135.20
2019-03-19T18:15:36.470Z,95147.80
2019-03-19T18:18:06.188Z,95156.01
2019-03-19T18:20:35.761Z,95150.18
2019-03-19T18:23:05.299Z,95152.78
2019-03-19T18:25:34.830Z,95155.73
2019-03-19T18:28:04.443Z,95162.56
2019-03-19T18:30:33.986Z,95158.81
2019-03-19T18:33:03.492Z,95161.20
2019-03-19T18:35:32.960Z,95167.59
2019-03-19T18:38:02.500Z,95176.21
2019-03-19T18:40:32.065Z,95176.52
2019-03-19T18:43:01.642Z,95180.91
2019-03-19T18:45:31.147Z,95175.54
2019-03-19T18:48:02.269Z,95179.19
2019-03-19T18:50:32.502Z,95183.35
2019-03-19T18:53:02.049Z,95195.11
2019-03-19T18:55:39.406Z,95189.03
2019-03-19T18:58:08.914Z,95195.41
2019-03-19T19:00:38.416Z,95192.70
2019-03-19T19:03:09.486Z,95190.99
2019-03-19T19:05:38.957Z,95199.30
2019-03-19T19:08:08.675Z,95203.77
2019-03-19T19:10:38.181Z,95199.00
2019-03-19T19:13:08.477Z,95201.67
2019-03-19T19:15:38.695Z,95205.95
2019-03-19T19:18:08.174Z,95201.52
2019-03-19T19:20:37.683Z,95200.77
2019-03-19T19:23:12.519Z,95214.45
2019-03-19T19:25:42.057Z,95214.33
2019-03-19T19:28:11.567Z,95212.81
2019-03-19T19:30:41.139Z,95219.41
2019-03-19T19:33:10.664Z,95219.71
2019-03-19T19:35:40.264Z,95224.15
2019-03-19T19:38:09.952Z,95221.95
2019-03-19T19:40:39.765Z,95225.56
2019-03-19T19:43:09.241Z,95230.03
2019-03-19T19:45:38.780Z,95239.95
2019-03-19T19:48:08.333Z,95234.39
2019-03-19T19:50:37.886Z,95238.42
2019-03-19T19:53:10.579Z,95238.94
2019-03-19T19:55:40.158Z,95239.95
2019-03-19T19:58:09.668Z,95251.56
2019-03-19T20:00:42.254Z,95250.55
2019-03-19T20:03:12.793Z,95252.48
2019-03-19T20:05:42.494Z,95254.89
2019-03-19T20:08:11.942Z,95253.80
2019-03-19T20:10:43.743Z,95258.95
2019-03-19T20:13:13.286Z,95259.52
2019-03-19T20:15:48.060Z,95262.04
2019-03-19T20:18:17.585Z,95265.28
2019-03-19T20:20:47.103Z,95269.81
2019-03-19T20:23:19.411Z,95269.73
2019-03-19T20:25:50.210Z,95273.29
2019-03-19T20:28:19.703Z,95274.75
2019-03-19T20:30:49.214Z,95277.26
2019-03-19T20:33:24.775Z,95278.62
2019-03-19T20:35:49.911Z,95281.64
2019-03-19T20:38:19.437Z,95283.45
2019-03-19T20:40:48.962Z,95287.94
2019-03-19T20:43:18.438Z,95287.94
2019-03-19T20:45:49.991Z,95291.76
2019-03-19T20:48:19.917Z,95300.27
2019-03-19T20:50:49.416Z,95291.37
2019-03-19T20:53:18.939Z,95296.25
2019-03-19T20:55:48.461Z,95299.47
2019-03-19T20:58:17.937Z,95301.91
2019-03-19T21:00:47.429Z,95302.82
2019-03-19T21:03:16.942Z,95309.15
2019-03-19T21:05:46.427Z,95309.01
2019-03-19T21:08:15.915Z,95317.41
2019-03-19T21:10:45.460Z,95318.66
2019-03-19T21:13:14.925Z,95317.54
2019-03-19T21:15:44.566Z,95323.77
2019-03-19T21:18:14.087Z,95318.51
2019-03-19T21:20:43.560Z,95324.77
2019-03-19T21:23:13.066Z,95314.88
2019-03-19T21:25:42.548Z,95321.10
2019-03-19T21:28:14.258Z,95321.66
2019-03-19T21:30:43.302Z,95324.91
2019-03-19T21:33:12.791Z,95321.88
2019-03-19T21:35:42.321Z,95322.91
2019-03-19T21:38:11.803Z,95320.57
2019-03-19T21:40:41.326Z,95323.51
2019-03-19T21:43:10.867Z,95314.09
2019-03-19T21:45:40.470Z,95324.98
2019-03-19T21:48:10.027Z,95324.56
2019-03-19T21:50:39.527Z,95326.22
2019-03-19T21:53:09.028Z,95330.52
2019-03-19T21:55:38.565Z,95333.61
2019-03-19T21:58:08.188Z,95336.91
2019-03-19T22:00:37.722Z,95329.73
2019-03-19T22:03:07.230Z,95333.12
2019-03-19T22:05:36.749Z,95336.80
2019-03-19T22:08:06.222Z,95335.63
2019-03-19T22:10:35.756Z,95342.94
2019-03-19T22:13:05.274Z,95342.67
2019-03-19T22:15:34.776Z,95338.38
2019-03-19T22:18:04.300Z,95343.30
2019-03-19T22:20:33.802Z,95345.88
2019-03-19T22:23:03.290Z,95341.70
2019-03-19T22:25:32.841Z,95344.55
2019-03-19T22:28:02.355Z,95344.95
2019-03-19T22:30:31.907Z,95345.44
2019-03-19T22:33:01.471Z,95343.30
2019-03-19T22:35:30.967Z,95351.03
2019-03-19T22:38:00.483Z,95346.46
2019-03-19T22:40:29.990Z,95350.78
2019-03-19T22:42:59.545Z,95347.03
2019-03-19T22:45:29.055Z,95353.23
2019-03-19T22:47:58.540Z,95348.88
2019-03-19T22:50:28.274Z,95353.80
2019-03-19T22:52:57.756Z,95354.52
2019-03-19T22:55:29.284Z,95353.42
2019-03-19T22:57:58.508Z,95357.35
2019-03-19T23:00:45.932Z,95359.61
2019-03-19T23:03:15.447Z,95357.63
2019-03-19T23:05:44.963Z,95358.66
2019-03-19T23:08:14.511Z,95362.91
2019-03-19T23:10:43.990Z,95364.58
2019-03-19T23:13:13.996Z,95362.16
2019-03-19T23:15:43.562Z,95359.55
2019-03-19T23:18:13.044Z,95365.39
2019-03-19T23:20:42.518Z,95364.89
2019-03-19T23:23:12.010Z,95373.60
2019-03-19T23:25:41.526Z,95376.22
2019-03-19T23:28:11.043Z,95376.47
2019-03-19T23:30:40.557Z,95373.87
2019-03-19T23:33:10.091Z,95375.92
2019-03-19T23:35:39.622Z,95377.73
2019-03-19T23:38:09.121Z,95376.59
2019-03-19T23:40:38.591Z,95375.46
2019-03-19T23:43:08.078Z,95376.84
2019-03-19T23:45:37.582Z,95377.83
2019-03-19T23:48:07.102Z,95376.69
2019-03-19T23:50:36.578Z,95385.02
2019-03-19T23:53:06.069Z,95383.95
2019-03-19T23:55:35.703Z,95387.19
2019-03-19T23:58:05.195Z,95391.29
